Time;durP1;ratioP1;P1;durP2;ratioP2;P2;SDS_P1;SDS_P2;PMS_P1;PMS_P2;Temp;Humidity;BMP_temperature;BMP_pressure;BME280_temperature;BME280_humidity;BME280_pressure;Samples;Min_cycle;Max_cycle;Signal;HPM_P1;HPM_P2
2022/06/30 05:32:51;;;;;;;8.38;5.80;;;;;;;21.79;92.57;100086.14;1739981;80;21740;-39
2022/06/30 05:35:18;;;;;;;9.18;5.70;;;;;;;21.85;92.82;100097.44;1779973;80;21653;-48
2022/06/30 05:37:44;;;;;;;8.45;6.17;;;;;;;21.85;92.13;100095.63;1783847;80;21084;-47
2022/06/30 05:40:12;;;;;;;9.05;6.15;;;;;;;21.87;92.08;100101.77;1770934;79;21415;-47
2022/06/30 05:42:39;;;;;;;9.73;6.30;;;;;;;21.85;92.01;100099.62;1771727;79;21547;-48
2022/06/30 05:45:06;;;;;;;7.85;6.45;;;;;;;21.87;92.04;100096.91;1783124;79;21451;-41
2022/06/30 05:47:33;;;;;;;9.90;6.28;;;;;;;21.88;91.95;100094.64;1790386;79;21022;-47
2022/06/30 05:50:00;;;;;;;10.15;6.97;;;;;;;21.87;92.24;100091.59;1791267;80;21039;-40
2022/06/30 05:52:27;;;;;;;6.92;5.70;;;;;;;21.88;92.74;100094.64;1781160;79;21077;-47
2022/06/30 05:54:56;;;;;;;10.48;6.10;;;;;;;21.91;92.57;100097.13;1791338;80;20991;-41
2022/06/30 05:57:22;;;;;;;6.80;5.87;;;;;;;21.92;92.94;100095.75;1790058;80;21639;-40
2022/06/30 05:59:49;;;;;;;82.00;22.05;;;;;;;21.96;92.44;100097.30;1790707;80;21018;-40
2022/06/30 06:02:15;;;;;;;141.65;35.83;;;;;;;22.02;92.36;100089.47;1791309;80;21038;-47
2022/06/30 06:04:42;;;;;;;19.50;9.40;;;;;;;22.09;92.55;100086.02;1813053;78;20981;-47
2022/06/30 06:07:09;;;;;;;8.83;7.47;;;;;;;22.15;92.36;100090.63;1777471;80;21062;-40
2022/06/30 06:09:35;;;;;;;11.85;6.60;;;;;;;22.20;91.79;100087.23;1790814;80;20991;-40
2022/06/30 06:12:06;;;;;;;13.80;7.65;;;;;;;22.28;92.22;100086.86;1788226;80;21590;-40
2022/06/30 06:14:33;;;;;;;13.85;6.60;;;;;;;22.34;91.93;100085.20;1785192;79;21650;-40
2022/06/30 06:16:59;;;;;;;10.65;7.42;;;;;;;22.40;92.07;100093.36;1785348;80;21062;-40
2022/06/30 06:19:26;;;;;;;7.83;7.12;;;;;;;22.46;91.59;100095.22;1785662;79;21437;-41
2022/06/30 06:21:52;;;;;;;10.13;6.40;;;;;;;22.48;91.82;100099.99;1785357;80;21721;-43
2022/06/30 06:24:19;;;;;;;7.92;6.40;;;;;;;22.50;91.03;100092.80;1786076;79;21442;-40
2022/06/30 06:26:45;;;;;;;11.15;6.37;;;;;;;22.53;91.92;100089.09;1786213;79;21359;-40
2022/06/30 06:29:14;;;;;;;7.03;6.35;;;;;;;22.57;91.54;100085.34;1819278;78;21936;-47
2022/06/30 06:31:40;;;;;;;10.55;6.95;;;;;;;22.62;91.35;100084.63;1807663;79;21048;-47
2022/06/30 06:34:07;;;;;;;10.75;6.72;;;;;;;22.70;90.56;100093.06;1773638;80;21488;-47
2022/06/30 06:36:35;;;;;;;9.68;7.17;;;;;;;22.79;89.48;100095.73;1772584;81;20964;-41
2022/06/30 06:39:02;;;;;;;7.62;6.30;;;;;;;22.90;88.94;100099.16;1764736;81;21124;-40
2022/06/30 06:41:29;;;;;;;8.03;6.58;;;;;;;23.02;89.78;100094.05;1759656;81;21569;-40
2022/06/30 06:43:55;;;;;;;8.98;6.85;;;;;;;23.15;89.26;100100.90;1753063;81;21488;-41
2022/06/30 06:46:26;;;;;;;7.45;6.60;;;;;;;23.26;88.18;100094.50;1756761;81;20997;-47
2022/06/30 06:48:50;;;;;;;12.10;6.28;;;;;;;23.45;86.05;100094.32;1759339;81;21024;-40
2022/06/30 06:51:17;;;;;;;79.50;23.47;;;;;;;23.56;83.68;100093.24;1757923;81;21003;-48
2022/06/30 06:53:43;;;;;;;13.10;7.42;;;;;;;23.69;83.38;100088.09;1753262;81;21067;-40
2022/06/30 06:56:10;;;;;;;8.80;6.58;;;;;;;23.88;80.97;100086.06;1757381;81;20961;-48
2022/06/30 06:58:37;;;;;;;12.03;5.97;;;;;;;24.04;79.62;100078.49;1751383;81;21549;-41
2022/06/30 07:01:04;;;;;;;9.00;4.87;;;;;;;24.37;75.36;100071.66;1755106;81;21403;-47
2022/06/30 07:03:32;;;;;;;5.28;4.78;;;;;;;24.37;75.36;100071.66;1761723;81;21032;-47
2022/06/30 07:05:58;;;;;;;5.65;4.53;;;;;;;24.48;73.24;100068.33;1759131;81;21023;-48
2022/06/30 07:08:25;;;;;;;5.55;5.05;;;;;;;24.53;73.10;100067.09;1759129;81;21068;-41
2022/06/30 07:10:55;;;;;;;5.72;5.12;;;;;;;24.57;72.94;100068.61;1752966;81;21467;-47
2022/06/30 07:13:20;;;;;;;5.33;4.60;;;;;;;24.57;72.94;100068.61;1746202;81;21551;-42
2022/06/30 07:15:47;;;;;;;8.08;5.20;;;;;;;24.64;73.00;100075.77;1754988;80;21008;-47
2022/06/30 07:18:14;;;;;;;6.67;5.00;;;;;;;24.79;73.23;100077.98;1761134;81;21896;-47
2022/06/30 07:20:40;;;;;;;23.85;11.10;;;;;;;24.98;72.83;100072.33;1751195;81;21440;-41
2022/06/30 07:23:07;;;;;;;8.85;6.97;;;;;;;25.13;73.21;100068.73;1761765;81;21020;-48
2022/06/30 07:25:34;;;;;;;9.95;5.67;;;;;;;25.30;72.18;100067.16;1753417;81;21574;-48
2022/06/30 07:28:02;;;;;;;9.53;5.83;;;;;;;25.40;70.94;100068.78;1738524;81;21035;-41
2022/06/30 07:30:29;;;;;;;6.55;4.50;;;;;;;25.49;70.68;100069.50;1761682;81;20981;-41
2022/06/30 07:32:56;;;;;;;5.50;5.00;;;;;;;25.63;68.72;100074.83;1747867;80;21048;-41
2022/06/30 07:35:23;;;;;;;8.18;4.85;;;;;;;25.72;68.30;100080.05;1733969;82;20964;-41
2022/06/30 07:37:50;;;;;;;5.05;4.65;;;;;;;25.76;67.59;100085.62;1744834;81;21005;-47
2022/06/30 07:40:16;;;;;;;4.53;4.12;;;;;;;25.84;67.50;100083.76;1737119;82;21012;-42
2022/06/30 07:42:43;;;;;;;5.10;4.60;;;;;;;25.97;66.89;100077.95;1740898;82;21095;-43
2022/06/30 07:45:11;;;;;;;5.50;4.92;;;;;;;26.06;66.70;100077.83;1739829;82;20953;-41
2022/06/30 07:47:39;;;;;;;5.67;4.62;;;;;;;26.13;66.91;100076.44;1742353;82;21031;-40
2022/06/30 07:50:07;;;;;;;8.73;5.00;;;;;;;26.18;65.26;100075.16;1741058;82;20940;-48
2022/06/30 07:52:34;;;;;;;8.03;4.80;;;;;;;26.17;65.75;100077.95;1742341;82;20984;-47
2022/06/30 07:55:00;;;;;;;4.75;4.35;;;;;;;26.11;66.27;100077.03;1738942;82;21040;-41
2022/06/30 07:57:27;;;;;;;6.05;4.45;;;;;;;26.04;66.06;100078.42;1740445;82;21044;-41
2022/06/30 07:59:54;;;;;;;5.83;4.75;;;;;;;25.98;65.65;100073.84;1738130;81;20972;-41
2022/06/30 08:02:21;;;;;;;5.87;4.80;;;;;;;25.99;65.68;100076.91;1740600;82;21023;-41
2022/06/30 08:04:48;;;;;;;5.35;4.60;;;;;;;26.08;64.99;100075.41;1740291;82;20960;-42
2022/06/30 08:07:14;;;;;;;6.65;4.35;;;;;;;26.26;64.99;100074.14;1739677;82;21060;-47
2022/06/30 08:09:41;;;;;;;4.37;3.95;;;;;;;26.45;63.29;100075.62;1735195;82;21031;-48
2022/06/30 08:12:09;;;;;;;6.10;4.22;;;;;;;26.61;64.08;100080.75;1731801;82;21011;-47
2022/06/30 08:14:35;;;;;;;4.83;4.30;;;;;;;26.75;63.75;100080.17;1749613;82;21548;-48
2022/06/30 08:17:04;;;;;;;6.15;4.25;;;;;;;26.87;62.55;100077.59;1752334;82;21004;-48
2022/06/30 08:19:31;;;;;;;5.58;4.37;;;;;;;27.01;62.43;100078.79;1755121;82;21051;-47
2022/06/30 08:21:57;;;;;;;6.50;4.37;;;;;;;27.14;61.46;100080.17;1756052;81;21020;-41
2022/06/30 08:24:24;;;;;;;9.58;5.22;;;;;;;27.23;60.55;100081.68;1756134;81;21004;-48
2022/06/30 08:26:51;;;;;;;4.85;4.20;;;;;;;27.31;59.96;100072.59;1755757;81;21786;-48
2022/06/30 08:29:17;;;;;;;6.58;3.47;;;;;;;27.43;58.41;100074.02;1755947;82;21071;-41
2022/06/30 08:31:45;;;;;;;3.92;3.50;;;;;;;27.57;58.45;100073.84;1755419;82;21052;-41
2022/06/30 08:34:11;;;;;;;8.13;3.75;;;;;;;27.63;57.95;100072.04;1755679;81;21043;-42
2022/06/30 08:36:38;;;;;;;4.60;3.98;;;;;;;27.69;58.33;100072.06;1755971;82;20933;-41
2022/06/30 08:42:02;;;;;;;7.28;3.72;;;;;;;27.75;59.32;100079.22;1755662;82;21024;-41
2022/06/30 08:44:19;;;;;;;4.97;4.50;;;;;;;27.65;57.53;100075.45;1755764;82;21519;-41
2022/06/30 08:46:46;;;;;;;4.92;3.90;;;;;;;27.66;58.18;100072.28;1756124;82;21279;-47
2022/06/30 08:49:12;;;;;;;4.15;3.85;;;;;;;27.71;57.62;100072.83;1755561;82;21509;-48
2022/06/30 08:51:39;;;;;;;4.22;3.92;;;;;;;27.76;56.43;100075.55;1756208;80;21003;-41
2022/06/30 08:54:06;;;;;;;4.12;3.83;;;;;;;27.83;56.86;100074.59;1755691;81;21039;-48
2022/06/30 08:56:34;;;;;;;4.87;4.05;;;;;;;27.82;57.40;100075.09;1755506;82;21543;-47
2022/06/30 08:59:04;;;;;;;5.33;3.83;;;;;;;27.78;56.31;100076.80;1744917;81;21473;-41
2022/06/30 09:01:35;;;;;;;4.20;3.80;;;;;;;27.72;56.33;100082.14;1756045;82;21003;-48
2022/06/30 09:03:59;;;;;;;4.90;3.87;;;;;;;27.69;56.35;100076.98;1754809;81;21026;-47
2022/06/30 09:06:26;;;;;;;4.37;3.37;;;;;;;27.80;57.45;100075.70;1755509;82;20991;-40
2022/06/30 09:08:53;;;;;;;7.53;3.70;;;;;;;28.02;56.28;100072.25;1755193;81;21531;-42
2022/06/30 09:11:19;;;;;;;4.12;3.80;;;;;;;28.17;55.23;100069.36;1755366;81;20988;-41
2022/06/30 09:13:50;;;;;;;4.10;3.70;;;;;;;28.23;55.07;100071.56;1755465;82;21051;-41
2022/06/30 09:16:20;;;;;;;4.37;3.47;;;;;;;28.34;54.61;100064.91;1756080;82;21065;-48
2022/06/30 09:18:47;;;;;;;4.40;3.58;;;;;;;28.50;54.35;100061.89;1755543;82;21618;-48
2022/06/30 09:21:18;;;;;;;3.60;3.30;;;;;;;28.66;54.31;100058.37;1756255;81;20940;-48
2022/06/30 09:26:37;;;;;;;7.55;3.40;;;;;;;28.82;54.27;100061.56;1818890;79;22525;-40
2022/06/30 09:29:04;;;;;;;7.50;3.72;;;;;;;28.87;54.66;100063.37;1765051;80;21044;-46
2022/06/30 09:31:40;;;;;;;4.25;3.55;;;;;;;28.82;54.20;100067.44;1733293;81;21046;-40
2022/06/30 09:34:18;;;;;;;4.25;3.87;;;;;;;28.60;54.30;100065.09;1762528;81;21659;-46
2022/06/30 09:36:49;;;;;;;4.28;3.60;;;;;;;28.36;54.54;100067.02;1762770;81;20968;-40
2022/06/30 09:39:18;;;;;;;5.10;3.33;;;;;;;28.33;54.90;100063.20;1765023;79;21050;-40
2022/06/30 09:41:45;;;;;;;4.53;3.45;;;;;;;28.44;55.33;100059.19;1765726;81;21063;-39
2022/06/30 09:44:22;;;;;;;4.25;3.10;;;;;;;28.55;54.76;100060.55;1763717;81;21044;-40
2022/06/30 09:47:08;;;;;;;3.85;3.42;;;;;;;28.63;53.30;100056.75;1763926;79;21070;-39
2022/06/30 09:49:39;;;;;;;5.20;3.50;;;;;;;28.71;52.34;100053.97;1765391;81;20957;-39
2022/06/30 09:52:25;;;;;;;3.40;3.02;;;;;;;28.85;52.12;100053.72;1764917;79;21078;-47
2022/06/30 09:54:59;;;;;;;3.17;2.95;;;;;;;29.00;51.37;100047.14;1765014;81;21084;-46
2022/06/30 09:57:31;;;;;;;3.75;3.40;;;;;;;29.18;51.07;100047.98;1762895;79;21028;-39
2022/06/30 10:00:02;;;;;;;6.03;3.52;;;;;;;29.21;50.67;100044.53;1763015;81;20980;-40
2022/06/30 10:02:41;;;;;;;3.27;3.02;;;;;;;29.23;50.71;100045.77;1762854;81;21064;-46
2022/06/30 10:05:09;;;;;;;3.33;3.00;;;;;;;29.30;50.79;100045.14;1763553;81;21048;-45
2022/06/30 10:07:37;;;;;;;4.37;3.10;;;;;;;29.31;49.44;100038.77;1763593;81;21032;-45
2022/06/30 10:10:11;;;;;;;3.10;2.80;;;;;;;29.34;48.56;100040.33;1763607;81;21024;-39
2022/06/30 10:12:40;;;;;;;3.72;3.42;;;;;;;29.33;49.11;100037.28;1762768;81;21103;-45
2022/06/30 10:15:11;;;;;;;3.47;3.17;;;;;;;29.36;49.66;100033.86;1763763;81;21045;-47
2022/06/30 10:17:46;;;;;;;3.52;3.22;;;;;;;29.39;49.88;100034.94;1755251;81;21017;-39
2022/06/30 10:20:13;;;;;;;3.47;3.27;;;;;;;29.42;48.25;100037.88;1762636;81;20981;-46
2022/06/30 10:22:40;;;;;;;3.40;3.10;;;;;;;29.40;49.35;100038.52;1763158;81;21029;-39
2022/06/30 10:25:07;;;;;;;3.42;2.80;;;;;;;29.41;48.39;100034.83;1760714;79;21036;-41
2022/06/30 10:27:34;;;;;;;3.37;3.08;;;;;;;29.47;47.89;100032.12;1748486;81;21628;-40
2022/06/30 10:30:09;;;;;;;4.15;3.05;;;;;;;29.58;47.66;100026.23;1747366;82;21428;-47
2022/06/30 10:33:10;;;;;;;4.22;2.75;;;;;;;29.75;46.74;100030.70;1741746;82;21053;-47
2022/06/30 10:35:51;;;;;;;3.10;2.83;;;;;;;29.99;46.53;100017.84;1735363;82;20981;-40
2022/06/30 10:38:26;;;;;;;6.50;2.67;;;;;;;30.09;44.58;100020.58;1731361;82;21049;-47
2022/06/30 10:41:14;;;;;;;5.08;2.83;;;;;;;30.04;44.83;100021.00;1734899;82;21461;-46
2022/06/30 10:44:08;;;;;;;3.27;2.98;;;;;;;29.87;44.28;100010.80;1717636;82;21033;-39
2022/06/30 10:46:36;;;;;;;4.70;3.15;;;;;;;29.70;46.15;100012.72;1736658;82;21025;-39
2022/06/30 10:49:10;;;;;;;6.33;3.12;;;;;;;29.57;45.63;100011.52;1717217;82;21108;-40
2022/06/30 10:51:37;;;;;;;3.05;2.75;;;;;;;29.44;46.43;100014.35;1728015;82;21017;-46
2022/06/30 10:54:04;;;;;;;3.10;2.80;;;;;;;29.41;47.42;100007.89;1714567;82;21104;-48
2022/06/30 10:56:55;;;;;;;3.50;3.17;;;;;;;29.51;46.62;100006.61;1730697;82;21042;-48
2022/06/30 10:59:31;;;;;;;4.92;4.40;;;;;;;29.57;46.42;100008.36;1723228;82;21012;-41
2022/06/30 11:02:14;;;;;;;6.47;3.27;;;;;;;29.70;46.21;100001.44;1723852;82;21029;-40
2022/06/30 11:04:48;;;;;;;3.05;2.85;;;;;;;29.93;46.50;99999.48;1740797;82;21454;-49
2022/06/30 11:07:21;;;;;;;3.50;3.20;;;;;;;30.03;46.26;100007.63;1718212;82;21041;-49
2022/06/30 11:09:55;;;;;;;;;;;;;;;30.05;45.88;100001.13;1728475;82;21015;-47
2022/06/30 11:12:37;;;;;;;2.87;2.67;;;;;;;29.99;46.11;99993.57;1725573;82;20121;-42
2022/06/30 11:15:04;;;;;;;5.10;2.92;;;;;;;29.98;46.81;99997.72;1734045;82;21017;-41
2022/06/30 11:17:31;;;;;;;3.60;3.30;;;;;;;30.01;45.80;99990.23;1731401;82;21501;-42
2022/06/30 11:20:11;;;;;;;4.90;3.40;;;;;;;30.05;46.29;99993.53;1737220;82;21069;-42
2022/06/30 11:22:39;;;;;;;3.02;2.72;;;;;;;29.96;47.09;99987.08;1727784;82;21512;-49
2022/06/30 11:25:08;;;;;;;5.95;3.70;;;;;;;29.85;47.04;99987.98;1727296;81;21651;-42
2022/06/30 11:27:38;;;;;;;5.12;3.40;;;;;;;29.72;46.73;99986.48;1732095;81;21615;-48
2022/06/30 11:30:09;;;;;;;3.85;3.37;;;;;;;29.61;46.93;99987.38;1733381;82;21018;-49
2022/06/30 11:32:37;;;;;;;4.15;2.90;;;;;;;29.48;47.98;99980.79;1736991;82;21513;-48
2022/06/30 11:35:04;;;;;;;5.20;3.50;;;;;;;29.31;49.59;99994.80;1733926;82;21012;-49
2022/06/30 11:37:33;;;;;;;5.05;3.98;;;;;;;29.11;51.05;100002.70;1728956;82;21056;-49
2022/06/30 11:40:06;;;;;;;11.28;3.98;;;;;;;28.86;54.29;100009.17;1739321;82;21452;-48
2022/06/30 11:42:35;;;;;;;8.30;4.83;;;;;;;28.36;56.29;100007.84;1732288;82;21591;-49
2022/06/30 11:45:23;;;;;;;7.83;4.03;;;;;;;27.82;58.92;100012.42;1671747;83;20968;-49
2022/06/30 11:47:59;;;;;;;10.90;4.53;;;;;;;27.39;57.40;100017.45;1688198;84;21228;-48
2022/06/30 11:50:26;;;;;;;7.12;5.08;;;;;;;27.08;59.81;100018.83;1713165;83;21024;-48
2022/06/30 11:52:54;;;;;;;9.15;4.97;;;;;;;26.74;63.25;100032.84;1684870;84;21108;-40
2022/06/30 11:55:26;;;;;;;8.28;4.10;;;;;;;26.33;66.47;100034.88;1688803;83;20989;-43
2022/06/30 11:57:53;;;;;;;;;;;;;;;25.89;67.89;100028.90;1676252;84;21021;-41
2022/06/30 12:00:23;;;;;;;10.63;5.05;;;;;;;25.59;69.28;100030.93;1696920;84;20101;-48
2022/06/30 12:02:53;;;;;;;5.70;4.62;;;;;;;25.38;71.44;100026.50;1677570;85;21050;-41
2022/06/30 12:05:23;;;;;;;5.12;4.47;;;;;;;25.17;68.77;100030.97;1636040;85;21029;-41
2022/06/30 12:07:50;;;;;;;5.17;4.60;;;;;;;24.99;69.80;100017.86;1677259;85;21479;-40
2022/06/30 12:10:18;;;;;;;6.80;4.67;;;;;;;25.01;72.86;100007.45;1686675;85;21016;-48
2022/06/30 12:12:46;;;;;;;9.33;4.00;;;;;;;25.17;74.57;100006.02;1676375;84;21578;-48
2022/06/30 12:15:15;;;;;;;5.53;4.15;;;;;;;25.37;75.93;100007.38;1685470;84;21009;-50
2022/06/30 12:17:44;;;;;;;6.90;4.03;;;;;;;25.54;73.69;100003.11;1678629;85;21240;-50
2022/06/30 12:20:13;;;;;;;4.78;4.00;;;;;;;25.45;73.88;100003.26;1675266;85;21460;-49
2022/06/30 12:22:45;;;;;;;5.00;3.90;;;;;;;25.27;73.34;99999.56;1677878;85;21083;-49
2022/06/30 12:25:12;;;;;;;7.50;3.67;;;;;;;25.13;74.52;99996.47;1674823;84;21389;-49
2022/06/30 12:27:52;;;;;;;6.42;3.52;;;;;;;25.08;75.20;99997.23;1675086;85;21068;-49
2022/06/30 12:30:29;;;;;;;4.42;3.55;;;;;;;25.07;75.17;99988.84;1693183;84;21468;-42
2022/06/30 12:32:58;;;;;;;3.67;3.37;;;;;;;25.09;76.39;99985.09;1687019;84;21553;-40
2022/06/30 12:35:33;;;;;;;4.40;3.60;;;;;;;25.10;75.55;99987.28;1687300;84;21537;-50
2022/06/30 12:38:16;;;;;;;4.53;4.12;;;;;;;25.05;76.54;99992.03;1697147;84;21059;-49
2022/06/30 12:40:42;;;;;;;4.95;3.95;;;;;;;25.03;77.01;99996.64;1679616;84;20994;-49
2022/06/30 12:43:10;;;;;;;8.20;3.62;;;;;;;24.99;75.86;99993.33;1689501;84;21093;-49
2022/06/30 12:46:00;;;;;;;4.42;4.12;;;;;;;24.93;75.77;99995.91;1683707;84;21581;-41
2022/06/30 12:48:51;;;;;;;6.58;4.28;;;;;;;24.90;76.05;99989.89;1731777;80;21548;-49
2022/06/30 12:51:39;;;;;;;4.67;3.70;;;;;;;24.92;76.47;99987.96;1724872;80;21504;-49
2022/06/30 12:54:12;;;;;;;4.55;3.80;;;;;;;24.99;76.10;99983.95;1730748;82;21100;-48
2022/06/30 12:56:41;;;;;;;7.08;4.53;;;;;;;25.11;76.98;99975.16;1727424;80;21005;-42
2022/06/30 12:59:16;;;;;;;5.45;3.58;;;;;;;25.37;75.59;99982.80;1732731;82;21048;-42
2022/06/30 13:01:46;;;;;;;4.30;3.90;;;;;;;25.61;74.71;99982.12;1744771;80;20988;-41
2022/06/30 13:04:25;;;;;;;4.35;3.95;;;;;;;25.81;73.64;99984.84;1748052;82;21553;-43
2022/06/30 13:06:53;;;;;;;6.97;4.80;;;;;;;25.99;75.35;99976.89;1723311;82;20971;-42
2022/06/30 13:09:22;;;;;;;5.42;4.92;;;;;;;26.16;75.50;99975.72;1718201;82;21017;-41
2022/06/30 13:11:58;;;;;;;10.88;5.40;;;;;;;26.31;75.04;99981.33;1733772;82;20981;-41
2022/06/30 13:14:27;;;;;;;6.80;5.35;;;;;;;26.43;72.72;99972.94;1722842;82;21041;-48
2022/06/30 13:17:00;;;;;;;4.83;4.42;;;;;;;26.57;73.77;99978.68;1742853;82;20956;-49
2022/06/30 13:19:26;;;;;;;5.42;4.67;;;;;;;26.71;71.74;99970.48;1726160;81;21020;-50
2022/06/30 13:21:53;;;;;;;7.60;5.28;;;;;;;26.86;72.37;99968.05;1742524;80;21615;-40
2022/06/30 13:24:21;;;;;;;6.35;4.80;;;;;;;27.00;70.92;99967.88;1732339;82;21097;-49
2022/06/30 13:26:49;;;;;;;6.05;4.30;;;;;;;27.11;67.11;99958.22;1750654;80;21549;-49
2022/06/30 13:29:16;;;;;;;4.75;4.08;;;;;;;27.20;62.60;99958.89;1748915;81;20982;-49
2022/06/30 13:31:45;;;;;;;4.17;3.77;;;;;;;27.27;61.92;99960.14;1745179;80;20980;-49
2022/06/30 13:34:13;;;;;;;7.95;3.72;;;;;;;27.37;60.74;99960.30;1742055;81;21002;-41
2022/06/30 13:36:42;;;;;;;5.08;4.12;;;;;;;27.48;59.42;99954.48;1745630;81;21005;-41
2022/06/30 13:39:19;;;;;;;6.42;3.55;;;;;;;27.57;57.76;99952.94;1757397;81;21854;-49
2022/06/30 13:41:51;;;;;;;4.95;3.92;;;;;;;27.66;57.90;99961.66;1756940;81;21061;-49
2022/06/30 13:44:18;;;;;;;9.15;4.10;;;;;;;27.76;56.63;99959.14;1755696;80;21001;-49
2022/06/30 13:46:47;;;;;;;3.92;3.60;;;;;;;27.83;55.74;99959.91;1760863;80;21026;-42
2022/06/30 13:49:14;;;;;;;3.72;3.40;;;;;;;27.84;55.61;99956.73;1739407;81;21004;-51
2022/06/30 13:51:41;;;;;;;4.33;3.92;;;;;;;27.82;54.17;99954.63;1753185;80;21600;-48
2022/06/30 13:54:07;;;;;;;4.53;4.05;;;;;;;27.79;53.23;99949.02;1748702;81;21042;-40
2022/06/30 13:56:34;;;;;;;4.85;4.33;;;;;;;27.78;55.13;99950.00;1757906;80;21076;-41
2022/06/30 13:59:01;;;;;;;7.72;4.72;;;;;;;27.84;56.52;99951.36;1749276;81;20994;-40
2022/06/30 14:01:31;;;;;;;4.50;4.10;;;;;;;27.92;55.33;99951.61;1754914;80;20990;-42
2022/06/30 14:03:58;;;;;;;4.28;3.87;;;;;;;27.99;55.13;99953.33;1740043;81;21057;-40
2022/06/30 14:06:24;;;;;;;5.70;4.55;;;;;;;28.09;54.58;99950.30;1752032;81;21521;-48
2022/06/30 14:08:51;;;;;;;4.53;4.12;;;;;;;28.25;53.38;99949.47;1753655;80;21110;-48
2022/06/30 14:11:18;;;;;;;4.97;3.92;;;;;;;28.41;52.89;99954.50;1737709;81;21021;-48
2022/06/30 14:13:46;;;;;;;6.62;3.60;;;;;;;28.44;52.48;99951.58;1735390;81;21069;-48
2022/06/30 14:16:12;;;;;;;6.80;4.37;;;;;;;28.42;51.77;99954.04;1735503;82;21013;-40
2022/06/30 14:18:40;;;;;;;5.83;3.85;;;;;;;28.35;51.87;99956.33;1743727;81;21045;-40
2022/06/30 14:21:07;;;;;;;7.85;3.58;;;;;;;28.30;51.86;99959.88;1759318;81;21087;-48
2022/06/30 14:23:35;;;;;;;3.50;3.30;;;;;;;28.23;51.74;99956.78;1749509;81;20982;-49
2022/06/30 14:26:03;;;;;;;5.95;4.00;;;;;;;28.10;50.88;99951.52;1739681;81;21855;-41
2022/06/30 14:28:30;;;;;;;5.83;3.52;;;;;;;28.02;51.54;99949.92;1720725;82;21607;-48
2022/06/30 14:30:57;;;;;;;9.63;4.00;;;;;;;27.96;51.94;99954.93;1728783;82;21061;-48
2022/06/30 14:33:23;;;;;;;4.30;3.90;;;;;;;27.88;52.17;99955.50;1728900;82;21033;-40
2022/06/30 14:35:50;;;;;;;7.30;3.90;;;;;;;27.87;52.85;99952.45;1722513;82;21017;-41
2022/06/30 14:38:17;;;;;;;5.45;4.45;;;;;;;27.89;53.55;99959.93;1727450;82;21524;-42
2022/06/30 14:40:43;;;;;;;5.05;4.17;;;;;;;27.88;52.27;99958.68;1719843;82;21007;-42
2022/06/30 14:43:12;;;;;;;4.85;3.62;;;;;;;27.85;51.59;99949.03;1729518;82;21713;-40
2022/06/30 14:45:40;;;;;;;5.95;3.95;;;;;;;27.85;51.50;99954.41;1737639;82;21544;-49
2022/06/30 14:48:07;;;;;;;4.65;3.70;;;;;;;27.83;51.03;99949.16;1722464;81;21053;-41
2022/06/30 14:50:34;;;;;;;4.03;3.65;;;;;;;27.79;51.10;99961.11;1742100;82;21486;-48
2022/06/30 14:53:01;;;;;;;4.28;3.62;;;;;;;27.77;50.72;99960.39;1736506;82;21044;-40
2022/06/30 14:55:27;;;;;;;5.40;3.42;;;;;;;27.77;50.61;99960.84;1718855;83;21038;-49
2022/06/30 14:57:56;;;;;;;4.35;3.77;;;;;;;27.77;49.98;99957.70;1719165;83;21025;-48
2022/06/30 15:00:26;;;;;;;5.70;4.72;;;;;;;27.80;50.28;99959.28;1719346;83;21013;-48
2022/06/30 15:02:53;;;;;;;6.05;4.50;;;;;;;27.77;50.93;99959.05;1719211;83;21045;-43
2022/06/30 15:05:27;;;;;;;4.37;3.90;;;;;;;27.74;51.57;99951.20;1719688;83;21094;-41
2022/06/30 15:07:54;;;;;;;6.12;3.72;;;;;;;27.76;51.67;99955.11;1719669;83;21033;-41
2022/06/30 15:10:20;;;;;;;5.62;3.70;;;;;;;27.84;51.43;99958.08;1719891;83;21001;-40
2022/06/30 15:12:48;;;;;;;6.40;4.40;;;;;;;27.91;51.67;99949.91;1719816;83;21045;-49
2022/06/30 15:15:17;;;;;;;9.18;4.20;;;;;;;27.93;51.58;99952.47;1719771;83;21033;-49
2022/06/30 15:17:44;;;;;;;4.83;4.33;;;;;;;27.91;51.97;99953.94;1719982;83;21615;-41
2022/06/30 15:20:13;;;;;;;6.20;4.47;;;;;;;27.90;52.23;99954.92;1719945;83;21049;-41
2022/06/30 15:25:25;;;;;;;5.78;3.85;;;;;;;27.92;52.03;99952.95;1746855;82;21082;-47
2022/06/30 15:27:51;;;;;;;10.58;4.22;;;;;;;27.92;51.92;99951.61;1744250;81;21031;-47
2022/06/30 15:30:18;;;;;;;4.10;3.67;;;;;;;27.88;51.88;99955.50;1750078;82;20989;-39
2022/06/30 15:32:45;;;;;;;5.72;3.98;;;;;;;27.85;51.63;99946.34;1723664;82;21033;-40
2022/06/30 15:35:11;;;;;;;6.78;4.80;;;;;;;27.83;51.67;99954.54;1721634;83;20997;-48
2022/06/30 15:37:38;;;;;;;5.22;4.47;;;;;;;27.79;51.86;99956.23;1722067;83;21001;-39
2022/06/30 15:40:15;;;;;;;6.70;4.42;;;;;;;27.76;51.13;99956.45;1722605;83;21017;-47
2022/06/30 15:42:38;;;;;;;9.35;4.22;;;;;;;27.74;50.98;99956.58;1721584;83;21076;-40
2022/06/30 15:45:05;;;;;;;9.28;4.55;;;;;;;27.72;51.30;99957.19;1722431;83;21505;-40
2022/06/30 15:55:32;;;;;;;4.60;3.72;;;;;;;27.71;52.00;99964.86;1800320;79;23213;-39
2022/06/30 15:57:59;;;;;;;5.85;4.22;;;;;;;27.62;51.57;99970.06;1709827;83;21101;-47
2022/06/30 16:00:26;;;;;;;5.90;4.30;;;;;;;27.57;51.27;99971.26;1730842;82;21037;-47
2022/06/30 16:02:54;;;;;;;5.83;4.47;;;;;;;27.54;51.77;99975.54;1730902;83;21071;-40
2022/06/30 16:05:21;;;;;;;5.85;4.12;;;;;;;27.49;52.00;99979.05;1698497;84;21107;-48
2022/06/30 16:07:48;;;;;;;3.98;3.67;;;;;;;27.48;52.36;99985.86;1698436;84;21618;-40
2022/06/30 16:10:14;;;;;;;4.95;4.17;;;;;;;27.46;52.59;99983.30;1698360;84;21063;-47
2022/06/30 16:12:41;;;;;;;8.85;4.22;;;;;;;27.43;52.29;99990.75;1698592;84;21087;-48
2022/06/30 16:15:09;;;;;;;6.60;4.22;;;;;;;27.40;51.84;99993.65;1698609;84;21099;-40
2022/06/30 16:17:38;;;;;;;4.55;4.05;;;;;;;27.35;51.64;99992.64;1670587;84;21134;-40
2022/06/30 16:20:06;;;;;;;6.65;4.45;;;;;;;27.29;51.93;99989.92;1698553;84;21622;-40
2022/06/30 16:22:33;;;;;;;4.30;3.80;;;;;;;27.27;52.22;99993.71;1698658;84;21102;-41
2022/06/30 16:24:59;;;;;;;4.20;3.80;;;;;;;27.24;52.41;99990.75;1698032;84;21020;-47
2022/06/30 16:27:26;;;;;;;7.22;4.00;;;;;;;27.20;52.81;99989.77;1698008;84;21143;-48
2022/06/30 16:29:53;;;;;;;5.17;4.15;;;;;;;27.16;52.69;99997.67;1697948;84;21048;-49
2022/06/30 16:32:20;;;;;;;5.35;4.10;;;;;;;27.13;52.49;100003.25;1697747;84;21035;-40
2022/06/30 16:34:47;;;;;;;4.05;3.60;;;;;;;27.11;52.38;99998.48;1698098;84;21036;-48
2022/06/30 16:37:13;;;;;;;6.17;3.72;;;;;;;27.09;52.81;99998.61;1698141;84;21060;-48
2022/06/30 16:39:41;;;;;;;6.12;4.30;;;;;;;27.07;53.05;99994.30;1698263;84;21119;-41
2022/06/30 16:42:08;;;;;;;7.28;4.10;;;;;;;27.05;53.00;99990.37;1698465;84;21086;-40
2022/06/30 16:44:39;;;;;;;4.97;3.40;;;;;;;27.02;52.72;99997.28;1698230;84;21095;-48
2022/06/30 16:47:06;;;;;;;5.85;3.98;;;;;;;27.00;53.02;100003.27;1698364;84;21012;-41
